createdAt,value
2019-01-15T00:02:51.960Z,50.40
2019-01-15T00:05:44.086Z,50.00
2019-01-15T00:08:36.427Z,50.10
2019-01-15T00:11:28.266Z,50.50
2019-01-15T00:14:20.369Z,50.40
2019-01-15T00:17:12.484Z,49.80
2019-01-15T00:20:04.586Z,49.70
2019-01-15T00:22:56.817Z,50.50
2019-01-15T00:25:48.869Z,50.40
2019-01-15T00:28:40.894Z,49.60
2019-01-15T00:31:32.750Z,50.10
2019-01-15T00:34:24.901Z,50.10
2019-01-15T00:37:16.887Z,49.90
2019-01-15T00:40:11.013Z,50.50
2019-01-15T00:43:03.287Z,50.00
2019-01-15T00:45:55.068Z,50.60
2019-01-15T00:48:47.182Z,50.20
2019-01-15T00:51:39.271Z,50.20
2019-01-15T00:54:31.477Z,50.30
2019-01-15T00:57:23.616Z,50.80
2019-01-15T01:00:17.449Z,50.30
2019-01-15T01:03:10.607Z,50.20
2019-01-15T01:06:02.474Z,50.60
2019-01-15T01:08:54.715Z,50.50
2019-01-15T01:11:46.787Z,50.50
2019-01-15T01:14:39.300Z,50.50
2019-01-15T01:17:31.319Z,50.20
2019-01-15T01:20:24.849Z,50.30
2019-01-15T01:23:17.198Z,50.30
2019-01-15T01:26:09.183Z,50.40
2019-01-15T01:29:01.405Z,50.40
2019-01-15T01:31:53.654Z,50.50
2019-01-15T01:34:46.514Z,50.60
2019-01-15T01:37:38.616Z,50.30
2019-01-15T01:40:30.804Z,50.30
2019-01-15T01:43:22.954Z,50.60
2019-01-15T01:46:15.059Z,50.40
2019-01-15T01:49:07.297Z,50.20
2019-01-15T01:51:59.075Z,50.60
2019-01-15T01:54:51.583Z,50.80
2019-01-15T01:57:43.439Z,50.80
2019-01-15T02:00:35.539Z,50.60
2019-01-15T02:03:28.104Z,50.10
2019-01-15T02:06:20.237Z,49.40
2019-01-15T02:09:13.202Z,49.80
2019-01-15T02:12:04.962Z,49.40
2019-01-15T02:14:57.161Z,48.80
2019-01-15T02:17:49.178Z,48.70
2019-01-15T02:20:41.164Z,48.70
2019-01-15T02:23:33.512Z,46.10
2019-01-15T02:26:25.691Z,45.40
2019-01-15T02:29:17.893Z,44.30
2019-01-15T02:32:12.677Z,43.90
2019-01-15T02:35:04.846Z,44.10
2019-01-15T02:37:57.749Z,43.70
2019-01-15T02:40:53.018Z,43.50
2019-01-15T02:43:46.283Z,43.30
2019-01-15T02:46:38.398Z,43.30
2019-01-15T02:49:30.452Z,43.10
2019-01-15T02:52:22.791Z,43.20
2019-01-15T02:55:15.626Z,42.90
2019-01-15T02:58:08.250Z,43.40
2019-01-15T03:01:02.949Z,43.50
2019-01-15T03:03:58.555Z,43.70
2019-01-15T03:06:50.675Z,43.60
2019-01-15T03:09:43.183Z,43.90
2019-01-15T03:12:35.418Z,43.20
2019-01-15T03:15:28.984Z,43.10
2019-01-15T03:18:21.595Z,42.90
2019-01-15T03:21:14.299Z,42.40
2019-01-15T03:24:07.506Z,42.70
2019-01-15T03:26:59.819Z,43.20
2019-01-15T03:29:52.806Z,42.70
2019-01-15T03:32:44.994Z,42.60
2019-01-15T03:35:37.424Z,42.40
2019-01-15T03:38:29.762Z,42.50
2019-01-15T03:41:23.304Z,42.40
2019-01-15T03:44:17.759Z,42.30
2019-01-15T03:47:10.223Z,42.30
2019-01-15T03:50:02.894Z,42.10
2019-01-15T03:52:55.060Z,42.10
2019-01-15T03:55:47.232Z,42.40
2019-01-15T03:58:39.833Z,42.20
2019-01-15T04:01:32.037Z,41.90
2019-01-15T04:04:24.605Z,41.70
2019-01-15T04:07:18.216Z,42.10
2019-01-15T04:10:10.923Z,42.20
2019-01-15T04:13:11.009Z,42.40
2019-01-15T04:15:59.235Z,42.60
2019-01-15T04:18:51.670Z,42.70
2019-01-15T04:21:44.143Z,42.90
2019-01-15T04:24:36.040Z,42.90
2019-01-15T04:27:27.997Z,42.70
2019-01-15T04:30:21.048Z,42.80
2019-01-15T04:33:13.205Z,42.80
2019-01-15T04:36:05.335Z,42.80
2019-01-15T04:38:57.654Z,42.80
2019-01-15T04:41:49.871Z,42.90
2019-01-15T04:44:43.407Z,43.00
2019-01-15T04:47:35.686Z,43.00
2019-01-15T04:50:27.795Z,43.30
2019-01-15T04:53:21.321Z,43.20
2019-01-15T04:56:16.221Z,43.30
2019-01-15T04:59:08.635Z,43.70
2019-01-15T05:02:01.305Z,44.00
2019-01-15T05:04:56.173Z,44.00
2019-01-15T05:07:51.388Z,44.00
2019-01-15T05:10:45.563Z,44.30
2019-01-15T05:13:45.588Z,44.40
2019-01-15T05:16:40.622Z,44.40
2019-01-15T05:19:34.370Z,44.50
2019-01-15T05:22:28.260Z,44.60
2019-01-15T05:25:43.745Z,44.50
2019-01-15T05:28:48.802Z,44.50
2019-01-15T05:31:50.248Z,44.60
2019-01-15T05:34:42.986Z,44.60
2019-01-15T05:37:38.002Z,44.70
2019-01-15T05:40:42.803Z,45.10
2019-01-15T05:47:19.964Z,44.10
2019-01-15T05:50:34.211Z,43.50
2019-01-15T05:53:26.287Z,44.00
2019-01-15T06:04:15.164Z,41.60
2019-01-15T06:07:10.818Z,41.60
2019-01-15T06:10:12.735Z,42.00
2019-01-15T06:17:30.871Z,41.10
2019-01-15T06:21:00.668Z,41.10
2019-01-15T06:24:11.854Z,41.40
2019-01-15T06:27:30.677Z,41.20
2019-01-15T06:30:33.019Z,41.20
2019-01-15T06:33:39.137Z,40.50
2019-01-15T06:36:32.904Z,40.70
2019-01-15T06:39:37.299Z,41.10
2019-01-15T06:42:32.574Z,40.90
2019-01-15T06:45:27.993Z,40.60
2019-01-15T06:48:45.733Z,41.40
2019-01-15T06:52:09.306Z,40.90
2019-01-15T06:55:04.744Z,41.00
2019-01-15T06:58:01.183Z,40.60
2019-01-15T07:01:06.543Z,41.20
2019-01-15T07:04:09.944Z,40.80
2019-01-15T07:07:08.904Z,41.40
2019-01-15T07:10:07.726Z,41.20
2019-01-15T07:13:09.344Z,41.80
2019-01-15T07:16:12.099Z,42.20
2019-01-15T07:19:29.860Z,41.40
2019-01-15T07:26:10.695Z,40.90
2019-01-15T07:29:15.328Z,40.80
2019-01-15T07:32:12.082Z,41.40
2019-01-15T07:35:05.318Z,40.50
2019-01-15T07:38:10.212Z,40.60
2019-01-15T07:41:14.042Z,41.50
2019-01-15T07:44:30.267Z,41.40
2019-01-15T07:47:23.360Z,40.40
2019-01-15T07:50:20.469Z,40.60
2019-01-15T07:53:20.604Z,41.30
2019-01-15T07:56:32.114Z,40.90
2019-01-15T07:59:29.745Z,40.60
2019-01-15T08:02:39.915Z,40.40
2019-01-15T08:05:37.045Z,40.90
2019-01-15T08:08:31.635Z,40.80
2019-01-15T08:11:26.990Z,40.70
2019-01-15T08:14:21.560Z,40.70
2019-01-15T08:17:15.459Z,40.80
2019-01-15T08:20:11.152Z,41.00
2019-01-15T08:23:07.630Z,41.40
2019-01-15T08:26:01.804Z,41.90
2019-01-15T08:28:54.337Z,42.00
2019-01-15T08:31:47.188Z,41.40
2019-01-15T08:34:40.584Z,41.10
2019-01-15T08:37:33.437Z,41.60
2019-01-15T08:40:26.774Z,41.80
2019-01-15T08:43:20.397Z,41.40
2019-01-15T08:46:12.996Z,41.90
2019-01-15T08:49:11.692Z,41.70
2019-01-15T08:52:04.377Z,41.30
2019-01-15T08:54:56.959Z,41.40
2019-01-15T08:57:59.213Z,41.30
2019-01-15T09:00:55.074Z,41.00
2019-01-15T09:03:47.799Z,41.20
2019-01-15T09:06:41.851Z,40.50
2019-01-15T09:09:35.273Z,41.10
2019-01-15T09:12:28.830Z,41.00
2019-01-15T09:15:21.514Z,41.10
2019-01-15T09:18:14.916Z,40.80
2019-01-15T09:21:10.827Z,41.00
2019-01-15T09:24:06.306Z,41.10
2019-01-15T09:26:59.300Z,40.40
2019-01-15T09:29:53.408Z,40.30
2019-01-15T09:32:46.283Z,40.90
2019-01-15T09:35:39.381Z,40.60
2019-01-15T09:38:32.211Z,40.30
2019-01-15T09:41:26.593Z,40.80
2019-01-15T09:44:19.825Z,40.50
2019-01-15T09:47:13.121Z,40.90
2019-01-15T09:50:09.726Z,40.80
2019-01-15T09:53:05.453Z,40.20
2019-01-15T09:56:05.156Z,40.30
2019-01-15T09:58:59.113Z,41.20
2019-01-15T10:01:52.260Z,39.20
2019-01-15T10:04:45.454Z,38.70
2019-01-15T10:07:38.698Z,39.10
2019-01-15T10:10:32.089Z,39.10
2019-01-15T10:13:27.220Z,37.50
2019-01-15T10:16:20.843Z,38.60
2019-01-15T10:19:15.734Z,39.20
2019-01-15T10:22:08.854Z,39.20
2019-01-15T10:25:12.917Z,39.70
2019-01-15T10:28:01.414Z,39.00
2019-01-15T10:31:16.830Z,38.80
2019-01-15T10:34:13.548Z,38.90
2019-01-15T10:37:05.660Z,39.10
2019-01-15T10:40:00.829Z,38.80
2019-01-15T10:42:55.132Z,38.90
2019-01-15T10:45:57.688Z,39.20
2019-01-15T10:48:51.804Z,39.30
2019-01-15T10:51:45.872Z,39.80
2019-01-15T10:54:38.949Z,39.10
2019-01-15T10:57:33.121Z,39.00
2019-01-15T11:00:25.948Z,38.60
2019-01-15T11:03:20.252Z,37.80
2019-01-15T11:06:14.806Z,38.20
2019-01-15T11:09:09.081Z,37.20
2019-01-15T11:12:02.088Z,38.10
2019-01-15T11:14:56.190Z,37.90
2019-01-15T11:17:51.892Z,37.40
2019-01-15T11:20:49.740Z,37.70
2019-01-15T11:23:44.565Z,38.00
2019-01-15T11:26:38.688Z,37.50
2019-01-15T11:29:31.755Z,37.20
2019-01-15T11:32:24.424Z,37.10
2019-01-15T11:35:18.676Z,37.80
2019-01-15T11:38:11.985Z,37.40
2019-01-15T11:41:05.769Z,37.40
2019-01-15T11:43:58.263Z,37.40
2019-01-15T11:46:51.212Z,38.00
2019-01-15T11:49:48.927Z,37.60
2019-01-15T11:52:43.295Z,37.10
2019-01-15T11:55:36.637Z,37.20
2019-01-15T11:58:32.056Z,37.00
2019-01-15T12:01:43.389Z,37.00
2019-01-15T12:04:59.717Z,36.60
2019-01-15T12:08:17.862Z,37.20
2019-01-15T12:11:32.331Z,37.90
2019-01-15T12:14:42.274Z,36.90
2019-01-15T12:17:51.597Z,37.10
2019-01-15T12:21:02.567Z,36.70
2019-01-15T12:24:40.902Z,36.30
2019-01-15T12:27:56.769Z,35.00
2019-01-15T12:31:15.793Z,34.70
2019-01-15T12:34:40.857Z,35.20
2019-01-15T12:37:56.065Z,34.70
2019-01-15T12:41:11.073Z,35.60
2019-01-15T12:44:24.561Z,35.70
2019-01-15T12:47:43.369Z,35.50
2019-01-15T12:51:01.983Z,36.30
2019-01-15T12:54:23.893Z,36.60
2019-01-15T12:57:45.395Z,37.00
2019-01-15T13:01:10.268Z,37.60
2019-01-15T13:04:22.959Z,36.90
2019-01-15T13:07:38.111Z,36.80
2019-01-15T13:10:52.741Z,35.30
2019-01-15T13:14:07.147Z,34.80
2019-01-15T13:17:28.299Z,34.80
2019-01-15T13:20:33.131Z,34.40
2019-01-15T13:23:47.312Z,34.40
2019-01-15T13:26:50.816Z,34.60
2019-01-15T13:30:10.698Z,34.80
2019-01-15T13:33:28.347Z,35.20
2019-01-15T13:36:46.330Z,35.00
2019-01-15T13:40:13.951Z,35.20
2019-01-15T13:43:33.005Z,35.00
2019-01-15T13:47:04.332Z,35.10
2019-01-15T13:50:26.358Z,35.60
2019-01-15T13:53:40.589Z,35.60
2019-01-15T13:57:06.448Z,36.00
2019-01-15T14:00:25.066Z,35.50
2019-01-15T14:03:38.339Z,35.40
2019-01-15T14:06:58.330Z,35.30
2019-01-15T14:10:18.334Z,35.90
2019-01-15T14:13:46.428Z,36.50
2019-01-15T14:17:12.526Z,37.20
2019-01-15T14:20:40.583Z,37.60
2019-01-15T14:24:09.928Z,37.80
2019-01-15T14:27:37.793Z,38.10
2019-01-15T14:31:12.440Z,38.50
2019-01-15T14:34:30.660Z,38.80
2019-01-15T14:37:52.940Z,39.00
2019-01-15T14:41:12.729Z,39.20
2019-01-15T14:44:31.355Z,39.60
2019-01-15T14:47:50.475Z,39.40
2019-01-15T14:51:23.146Z,39.70
2019-01-15T14:54:41.915Z,39.70
2019-01-15T14:58:03.814Z,40.00
2019-01-15T15:01:25.635Z,40.40
2019-01-15T15:04:27.494Z,40.50
2019-01-15T15:07:42.815Z,40.50
2019-01-15T15:10:59.888Z,40.50
2019-01-15T15:14:23.914Z,40.60
2019-01-15T15:17:35.067Z,40.80
2019-01-15T15:20:51.096Z,41.00
2019-01-15T15:24:00.796Z,41.20
2019-01-15T15:27:23.695Z,41.50
2019-01-15T15:30:34.280Z,41.60
2019-01-15T15:33:45.522Z,41.90
2019-01-15T15:36:55.096Z,41.70
2019-01-15T15:40:25.151Z,41.70
2019-01-15T15:43:42.407Z,41.80
2019-01-15T15:46:53.345Z,42.20
2019-01-15T15:50:04.811Z,42.30
2019-01-15T15:53:30.269Z,42.40
2019-01-15T15:56:41.040Z,43.10
2019-01-15T15:59:50.601Z,42.70
2019-01-15T16:03:10.568Z,42.80
2019-01-15T16:06:20.222Z,43.00
2019-01-15T16:09:32.057Z,43.30
2019-01-15T16:12:41.661Z,43.30
2019-01-15T16:15:59.189Z,43.30
2019-01-15T16:19:13.104Z,43.60
2019-01-15T16:22:26.575Z,43.70
2019-01-15T16:25:40.733Z,43.70
2019-01-15T16:28:45.388Z,43.70
2019-01-15T16:31:55.887Z,43.80
2019-01-15T16:35:06.895Z,44.00
2019-01-15T16:38:16.650Z,44.00
2019-01-15T16:41:30.409Z,44.00
2019-01-15T16:44:34.697Z,44.00
2019-01-15T16:48:04.327Z,44.00
2019-01-15T16:51:09.891Z,44.30
2019-01-15T16:54:13.420Z,44.30
2019-01-15T16:57:24.044Z,44.20
2019-01-15T17:00:35.827Z,44.20
2019-01-15T17:03:45.505Z,44.40
2019-01-15T17:07:08.728Z,44.50
2019-01-15T17:10:38.856Z,44.50
2019-01-15T17:13:45.604Z,44.50
2019-01-15T17:17:08.044Z,44.80
2019-01-15T17:20:11.435Z,44.80
2019-01-15T17:23:30.518Z,44.60
2019-01-15T17:26:32.019Z,44.80
2019-01-15T17:29:54.277Z,44.80
2019-01-15T17:33:04.564Z,44.70
2019-01-15T17:36:21.056Z,44.60
2019-01-15T17:39:49.003Z,44.60
2019-01-15T17:43:08.410Z,44.50
2019-01-15T17:46:11.128Z,44.40
2019-01-15T17:49:20.316Z,44.50
2019-01-15T17:52:43.548Z,44.70
2019-01-15T17:55:45.656Z,44.80
2019-01-15T17:59:05.373Z,44.80
2019-01-15T18:02:18.743Z,44.90
2019-01-15T18:05:40.842Z,44.70
2019-01-15T18:08:50.796Z,44.90
2019-01-15T18:12:10.785Z,44.50
2019-01-15T18:15:23.493Z,44.80
2019-01-15T18:18:32.020Z,44.80
2019-01-15T18:21:42.602Z,44.80
2019-01-15T18:24:53.105Z,44.50
2019-01-15T18:28:09.676Z,44.50
2019-01-15T18:31:34.488Z,44.40
2019-01-15T18:34:42.480Z,44.80
2019-01-15T18:37:52.341Z,45.00
2019-01-15T18:41:01.873Z,45.20
2019-01-15T18:44:21.540Z,45.00
2019-01-15T18:47:35.006Z,44.90
2019-01-15T18:50:43.463Z,44.60
2019-01-15T18:53:52.461Z,45.00
2019-01-15T18:57:08.943Z,45.20
2019-01-15T19:00:19.144Z,45.20
2019-01-15T19:03:30.481Z,45.30
2019-01-15T19:06:39.477Z,45.20
2019-01-15T19:09:45.213Z,45.50
2019-01-15T19:12:58.337Z,45.40
2019-01-15T19:16:17.372Z,45.40
2019-01-15T19:19:25.961Z,45.60
2019-01-15T19:22:42.257Z,45.80
2019-01-15T19:25:45.312Z,45.70
2019-01-15T19:28:42.998Z,45.70
2019-01-15T19:31:51.365Z,45.80
2019-01-15T19:34:59.764Z,45.80
2019-01-15T19:38:09.999Z,45.70
2019-01-15T19:41:21.285Z,45.80
2019-01-15T19:44:37.797Z,46.10
2019-01-15T19:48:06.204Z,46.00
2019-01-15T19:51:31.622Z,46.10
2019-01-15T19:54:50.581Z,45.80
2019-01-15T19:58:03.215Z,45.80
2019-01-15T20:01:08.796Z,46.30
2019-01-15T20:04:19.434Z,46.40
2019-01-15T20:07:28.350Z,46.40
2019-01-15T20:10:44.446Z,46.40
2019-01-15T20:13:52.867Z,46.40
2019-01-15T20:17:18.344Z,46.30
2019-01-15T20:20:35.885Z,46.20
2019-01-15T20:23:45.955Z,46.30
2019-01-15T20:26:56.495Z,46.20
2019-01-15T20:30:09.319Z,46.20
2019-01-15T20:33:37.602Z,46.40
2019-01-15T20:36:50.577Z,46.30
2019-01-15T20:40:03.523Z,46.40
2019-01-15T20:43:09.064Z,46.30
2019-01-15T20:46:20.558Z,46.40
2019-01-15T20:49:30.670Z,46.50
2019-01-15T20:52:39.410Z,46.50
2019-01-15T20:55:49.451Z,46.60
2019-01-15T20:58:58.076Z,46.70
2019-01-15T21:02:06.341Z,46.50
2019-01-15T21:05:18.716Z,46.20
2019-01-15T21:08:32.789Z,46.20
2019-01-15T21:11:57.581Z,46.50
2019-01-15T21:15:10.357Z,46.60
2019-01-15T21:18:19.335Z,46.50
2019-01-15T21:21:22.049Z,46.70
2019-01-15T21:24:40.910Z,46.80
2019-01-15T21:28:09.257Z,46.50
2019-01-15T21:31:17.640Z,46.50
2019-01-15T21:34:26.775Z,46.80
2019-01-15T21:37:39.605Z,46.70
2019-01-15T21:40:45.065Z,46.60
2019-01-15T21:43:50.212Z,46.50
2019-01-15T21:46:53.996Z,46.50
2019-01-15T21:50:03.035Z,46.60
2019-01-15T21:53:13.300Z,46.80
2019-01-15T21:56:33.266Z,46.70
2019-01-15T21:59:41.824Z,46.60
2019-01-15T22:02:50.379Z,46.60
2019-01-15T22:06:03.548Z,46.70
2019-01-15T22:09:22.947Z,46.00
2019-01-15T22:12:32.874Z,46.60
2019-01-15T22:15:40.532Z,46.70
2019-01-15T22:19:01.663Z,46.50
2019-01-15T22:22:14.734Z,46.10
2019-01-15T22:25:25.235Z,46.50
2019-01-15T22:28:53.552Z,46.60
2019-01-15T22:32:02.543Z,46.70
2019-01-15T22:35:09.460Z,46.70
2019-01-15T22:38:34.770Z,46.20
2019-01-15T22:41:43.550Z,46.00
2019-01-15T22:44:52.385Z,46.20
2019-01-15T22:48:01.106Z,46.20
2019-01-15T22:51:09.063Z,46.00
2019-01-15T22:54:24.941Z,45.90
2019-01-15T22:57:39.309Z,46.00
2019-01-15T23:00:50.276Z,46.00
2019-01-15T23:03:52.328Z,46.10
2019-01-15T23:07:00.749Z,46.40
2019-01-15T23:10:10.845Z,46.00
2019-01-15T23:13:21.947Z,45.90
2019-01-15T23:16:38.143Z,46.00
2019-01-15T23:19:43.169Z,46.00
2019-01-15T23:23:05.520Z,46.10
2019-01-15T23:26:06.256Z,45.80
2019-01-15T23:29:30.521Z,46.30
2019-01-15T23:32:39.460Z,46.10
2019-01-15T23:35:48.210Z,46.00
2019-01-15T23:38:57.338Z,46.10
2019-01-15T23:42:07.424Z,46.00
2019-01-15T23:45:17.223Z,46.10
2019-01-15T23:48:26.243Z,46.10
2019-01-15T23:51:35.399Z,45.90
2019-01-15T23:54:48.617Z,45.60
2019-01-15T23:57:58.291Z,46.00
